Time;durP1;ratioP1;P1;durP2;ratioP2;P2;SDS_P1;SDS_P2;PMS_P1;PMS_P2;Temp;Humidity;BMP_temperature;BMP_pressure;BME280_temperature;BME280_humidity;BME280_pressure;Samples;Min_cycle;Max_cycle;Signal;HPM_P1;HPM_P2
2021/07/02 00:01:08;;;;;;;116.63;54.10;;;14.10;99.90;;;;;;5054706;28;20394;-66
2021/07/02 00:03:34;;;;;;;114.63;53.88;;;14.10;99.90;;;;;;5054352;28;20021;-66
2021/07/02 00:06:00;;;;;;;120.63;51.75;;;14.10;99.90;;;;;;5054600;28;20032;-67
2021/07/02 00:08:26;;;;;;;123.45;54.72;;;14.10;99.90;;;;;;5054574;28;20029;-66
2021/07/02 00:10:53;;;;;;;104.82;51.83;;;14.10;99.90;;;;;;5054537;28;20112;-67
2021/07/02 00:13:19;;;;;;;114.70;50.17;;;14.10;99.90;;;;;;5052699;28;20490;-67
2021/07/02 00:15:44;;;;;;;111.60;51.58;;;14.10;99.90;;;;;;5054351;28;20056;-66
2021/07/02 00:18:10;;;;;;;102.93;48.60;;;14.20;99.90;;;;;;5054137;28;20028;-66
2021/07/02 00:20:36;;;;;;;113.82;50.33;;;14.10;99.90;;;;;;5054364;28;20110;-66
2021/07/02 00:23:01;;;;;;;118.07;49.33;;;14.10;99.90;;;;;;5054365;28;20143;-66
2021/07/02 00:25:27;;;;;;;108.57;49.63;;;14.10;99.90;;;;;;5053149;28;20408;-67
2021/07/02 00:27:52;;;;;;;105.68;49.92;;;14.10;99.90;;;;;;5054241;28;20060;-66
2021/07/02 00:30:18;;;;;;;107.90;50.85;;;14.10;99.90;;;;;;5053939;28;20035;-66
2021/07/02 00:32:44;;;;;;;107.93;50.60;;;14.10;99.90;;;;;;5054178;28;20067;-66
2021/07/02 00:35:10;;;;;;;111.57;51.20;;;14.10;99.90;;;;;;5053529;28;20505;-67
2021/07/02 00:37:35;;;;;;;118.10;50.35;;;14.10;99.90;;;;;;5054116;28;20414;-67
2021/07/02 00:40:01;;;;;;;115.03;50.72;;;14.10;99.90;;;;;;5054094;28;20458;-66
2021/07/02 00:42:26;;;;;;;107.30;46.72;;;14.10;99.90;;;;;;5053468;28;20053;-67
2021/07/02 00:44:53;;;;;;;117.70;49.80;;;14.20;99.90;;;;;;5053712;28;20055;-67
2021/07/02 00:47:19;;;;;;;101.72;46.30;;;14.20;99.90;;;;;;5052554;28;20021;-67
2021/07/02 00:49:45;;;;;;;111.45;48.25;;;14.20;99.90;;;;;;5053976;28;20173;-67
2021/07/02 00:52:13;;;;;;;111.25;50.20;;;14.20;99.90;;;;;;5053772;28;20025;-67
2021/07/02 00:54:42;;;;;;;108.63;47.38;;;14.20;99.90;;;;;;5053636;28;20374;-67
2021/07/02 00:57:09;;;;;;;102.07;46.42;;;14.20;99.90;;;;;;5053138;28;20441;-67
2021/07/02 00:59:35;;;;;;;100.78;46.53;;;14.20;99.90;;;;;;5053548;28;20017;-67
2021/07/02 01:02:00;;;;;;;96.22;43.58;;;14.10;99.90;;;;;;5053557;28;20078;-67
2021/07/02 01:04:26;;;;;;;102.07;45.17;;;14.20;99.90;;;;;;5053758;28;20017;-67
2021/07/02 01:06:53;;;;;;;101.47;45.75;;;14.20;99.90;;;;;;5052606;28;20033;-67
2021/07/02 01:09:20;;;;;;;106.38;46.58;;;14.20;99.90;;;;;;5053500;28;20463;-67
2021/07/02 01:11:46;;;;;;;105.65;45.58;;;14.10;99.90;;;;;;5053725;28;20039;-67
2021/07/02 01:14:11;;;;;;;103.35;44.78;;;14.20;99.90;;;;;;5053747;28;20426;-67
2021/07/02 01:16:39;;;;;;;100.68;46.60;;;14.20;99.90;;;;;;5053654;28;20028;-67
2021/07/02 01:19:04;;;;;;;106.40;45.67;;;14.20;99.90;;;;;;5053680;28;20025;-67
2021/07/02 01:21:30;;;;;;;102.22;44.97;;;14.20;99.90;;;;;;5053656;28;20520;-67
2021/07/02 01:23:56;;;;;;;97.07;44.75;;;14.20;99.90;;;;;;5051810;28;20025;-67
2021/07/02 01:26:22;;;;;;;113.95;45.15;;;14.20;99.90;;;;;;5053070;28;20029;-67
2021/07/02 01:28:48;;;;;;;93.30;44.00;;;14.20;99.90;;;;;;5053308;28;20028;-67
2021/07/02 01:31:13;;;;;;;101.95;45.10;;;14.20;99.90;;;;;;5052978;28;20406;-67
2021/07/02 01:33:39;;;;;;;109.40;44.83;;;14.20;99.90;;;;;;5052068;28;20032;-66
2021/07/02 01:36:08;;;;;;;102.70;44.28;;;14.20;99.90;;;;;;5053454;28;20032;-67
2021/07/02 01:38:34;;;;;;;100.80;44.40;;;14.20;99.90;;;;;;5053446;28;20017;-66
2021/07/02 01:41:00;;;;;;;103.15;45.47;;;14.20;99.90;;;;;;5053466;28;20024;-66
2021/07/02 01:43:26;;;;;;;96.85;45.05;;;14.20;99.90;;;;;;5052021;28;20379;-67
2021/07/02 01:45:53;;;;;;;105.60;46.33;;;14.20;99.90;;;;;;5053400;28;20025;-67
2021/07/02 01:48:19;;;;;;;101.18;44.47;;;14.20;99.90;;;;;;5052883;28;20388;-66
2021/07/02 01:50:44;;;;;;;103.13;45.75;;;14.20;99.90;;;;;;5053054;28;20029;-67
2021/07/02 01:53:10;;;;;;;97.63;43.40;;;14.20;99.90;;;;;;5051970;28;20025;-67
2021/07/02 01:55:35;;;;;;;100.93;43.58;;;14.20;99.90;;;;;;5052873;28;20077;-67
2021/07/02 01:58:01;;;;;;;102.68;44.50;;;14.20;99.90;;;;;;5053317;28;20406;-67
2021/07/02 02:00:27;;;;;;;99.10;45.72;;;14.20;99.90;;;;;;5053020;28;20455;-67
2021/07/02 02:02:52;;;;;;;112.03;44.58;;;14.20;99.90;;;;;;5052479;28;20017;-67
2021/07/02 02:05:18;;;;;;;97.28;45.00;;;14.20;99.90;;;;;;5056385;28;20024;-67
2021/07/02 02:07:43;;;;;;;95.65;44.55;;;14.20;99.90;;;;;;5056839;28;20036;-67
2021/07/02 02:10:09;;;;;;;97.55;43.92;;;14.10;99.90;;;;;;5056793;28;20040;-67
2021/07/02 02:12:35;;;;;;;99.70;42.15;;;14.10;99.90;;;;;;5055108;28;20103;-66
2021/07/02 02:15:01;;;;;;;97.85;44.10;;;14.20;99.90;;;;;;5056773;28;20025;-67
2021/07/02 02:17:26;;;;;;;93.45;43.38;;;14.20;99.90;;;;;;5056368;28;20414;-66
2021/07/02 02:19:52;;;;;;;97.18;44.33;;;14.20;99.90;;;;;;5056075;28;20079;-67
2021/07/02 02:22:17;;;;;;;103.60;44.75;;;14.20;99.90;;;;;;5056055;28;20025;-67
2021/07/02 02:24:43;;;;;;;104.47;43.45;;;14.10;99.90;;;;;;5055385;28;20025;-67
2021/07/02 02:27:09;;;;;;;105.50;43.90;;;14.10;99.90;;;;;;5055941;28;20040;-67
2021/07/02 02:29:35;;;;;;;100.82;43.80;;;14.10;99.90;;;;;;5056438;28;20045;-66
2021/07/02 02:32:00;;;;;;;101.35;43.67;;;14.10;99.90;;;;;;5056446;28;20083;-67
2021/07/02 02:34:26;;;;;;;106.50;45.00;;;14.20;99.90;;;;;;5056079;28;20379;-67
2021/07/02 02:36:52;;;;;;;99.72;44.60;;;14.10;99.90;;;;;;5056217;28;20029;-67
2021/07/02 02:39:17;;;;;;;104.50;46.25;;;14.10;99.90;;;;;;5056288;28;20021;-67
2021/07/02 02:41:43;;;;;;;107.03;46.55;;;14.10;99.90;;;;;;5055933;28;20017;-67
2021/07/02 02:44:08;;;;;;;103.82;45.00;;;14.20;99.90;;;;;;5056226;28;20482;-67
2021/07/02 02:46:34;;;;;;;103.43;44.05;;;14.10;99.90;;;;;;5055020;28;20048;-67
2021/07/02 02:49:00;;;;;;;100.72;44.55;;;14.20;99.90;;;;;;5055072;28;20056;-67
2021/07/02 02:51:26;;;;;;;104.50;46.17;;;14.20;99.90;;;;;;5056055;28;20109;-66
2021/07/02 02:53:51;;;;;;;109.45;45.17;;;14.10;99.90;;;;;;5055995;28;20037;-67
2021/07/02 02:56:17;;;;;;;95.63;43.67;;;14.20;99.90;;;;;;5055350;28;20376;-67
2021/07/02 02:58:43;;;;;;;102.65;45.03;;;14.10;99.90;;;;;;5055888;28;20035;-66
2021/07/02 03:01:08;;;;;;;103.95;43.88;;;14.20;99.90;;;;;;5055344;28;20104;-67
2021/07/02 03:03:34;;;;;;;99.88;44.20;;;14.20;99.90;;;;;;5055780;28;20020;-67
2021/07/02 03:05:59;;;;;;;94.68;42.85;;;14.20;99.90;;;;;;5055772;28;20025;-67
2021/07/02 03:08:25;;;;;;;99.78;44.60;;;14.20;99.90;;;;;;5055436;28;20025;-67
2021/07/02 03:10:50;;;;;;;93.30;41.78;;;14.20;99.90;;;;;;5054735;28;20048;-67
2021/07/02 03:13:16;;;;;;;105.18;43.38;;;14.10;99.90;;;;;;5055370;28;20086;-67
2021/07/02 03:15:41;;;;;;;93.18;41.67;;;14.10;99.90;;;;;;5055514;28;20113;-67
2021/07/02 03:18:07;;;;;;;91.05;41.00;;;14.20;99.90;;;;;;5055279;28;20021;-67
2021/07/02 03:20:33;;;;;;;91.18;41.58;;;14.20;99.90;;;;;;5054017;28;20428;-67
2021/07/02 03:22:58;;;;;;;93.47;42.53;;;14.20;99.90;;;;;;5055179;28;20036;-67
2021/07/02 03:25:24;;;;;;;88.72;41.08;;;14.20;99.90;;;;;;5053970;28;20021;-67
2021/07/02 03:27:49;;;;;;;91.32;43.10;;;14.20;99.90;;;;;;5055362;28;20029;-67
2021/07/02 03:30:15;;;;;;;89.07;40.58;;;14.20;99.90;;;;;;5055294;28;20462;-67
2021/07/02 03:32:41;;;;;;;86.57;39.92;;;14.20;99.90;;;;;;5054012;28;20025;-67
2021/07/02 03:35:09;;;;;;;90.95;40.58;;;14.20;99.90;;;;;;5055206;28;20025;-67
2021/07/02 03:37:35;;;;;;;89.93;40.70;;;14.20;99.90;;;;;;5055074;28;20028;-67
2021/07/02 03:40:00;;;;;;;82.72;38.20;;;14.20;99.90;;;;;;5055126;28;20078;-67
2021/07/02 03:42:26;;;;;;;85.45;39.75;;;14.20;99.90;;;;;;5053642;28;20027;-67
2021/07/02 03:44:52;;;;;;;90.47;39.20;;;14.20;99.90;;;;;;5053817;28;20528;-66
2021/07/02 03:47:17;;;;;;;86.85;39.60;;;14.20;99.90;;;;;;5054951;28;20023;-66
2021/07/02 03:49:43;;;;;;;78.07;38.08;;;14.20;99.90;;;;;;5054637;28;20369;-67
2021/07/02 03:52:09;;;;;;;81.47;38.63;;;14.30;99.90;;;;;;5054846;28;20021;-67
2021/07/02 03:54:34;;;;;;;81.25;37.55;;;14.30;99.90;;;;;;5054814;28;20062;-67
2021/07/02 03:57:18;;;;;;;80.20;37.17;;;14.30;99.90;;;;;;5054107;28;20052;-67
2021/07/02 03:59:47;;;;;;;82.70;37.78;;;14.30;99.90;;;;;;5052971;28;20035;-67
2021/07/02 04:02:13;;;;;;;83.65;38.75;;;14.40;99.90;;;;;;5054415;28;20021;-67
2021/07/02 04:04:40;;;;;;;82.80;38.53;;;14.40;99.90;;;;;;5054401;28;20095;-66
2021/07/02 04:07:08;;;;;;;81.05;36.90;;;14.40;99.90;;;;;;5053649;28;20052;-66
2021/07/02 04:09:34;;;;;;;76.82;37.95;;;14.40;99.90;;;;;;5054569;28;20056;-67
2021/07/02 04:12:00;;;;;;;79.45;34.13;;;14.40;99.90;;;;;;5054278;28;20063;-66
2021/07/02 04:14:26;;;;;;;73.40;35.83;;;14.30;99.90;;;;;;5053966;28;20414;-67
2021/07/02 04:16:52;;;;;;;84.15;36.83;;;14.30;99.90;;;;;;5054087;28;20032;-67
2021/07/02 04:19:18;;;;;;;76.30;36.33;;;14.40;99.90;;;;;;5053871;28;20088;-67
2021/07/02 04:21:44;;;;;;;76.90;36.85;;;14.40;99.90;;;;;;5054091;28;20374;-67
2021/07/02 04:24:10;;;;;;;79.15;36.03;;;14.40;99.90;;;;;;5054291;28;20459;-67
2021/07/02 04:26:35;;;;;;;68.43;33.75;;;14.50;99.90;;;;;;5053876;28;20104;-67
2021/07/02 04:29:01;;;;;;;77.35;38.83;;;14.50;99.90;;;;;;5052444;28;20029;-67
2021/07/02 04:31:26;;;;;;;75.13;37.10;;;14.40;99.90;;;;;;5052336;28;20102;-67
2021/07/02 04:33:52;;;;;;;73.72;36.47;;;14.40;99.90;;;;;;5054167;28;20033;-66
2021/07/02 04:36:17;;;;;;;80.53;37.30;;;14.50;99.90;;;;;;5053507;28;20021;-67
2021/07/02 04:38:43;;;;;;;73.32;36.03;;;14.60;99.90;;;;;;5053540;28;20022;-67
2021/07/02 04:41:09;;;;;;;74.10;35.30;;;14.60;99.90;;;;;;5052260;28;20112;-67
2021/07/02 04:43:35;;;;;;;74.15;36.90;;;14.50;99.90;;;;;;5054032;28;20043;-66
2021/07/02 04:46:01;;;;;;;79.82;36.25;;;14.50;99.90;;;;;;5054034;28;20088;-67
2021/07/02 04:48:26;;;;;;;77.88;36.78;;;14.50;99.90;;;;;;5053950;28;20029;-66
2021/07/02 04:50:52;;;;;;;78.88;37.28;;;14.50;99.90;;;;;;5053946;28;20466;-66
2021/07/02 04:53:18;;;;;;;79.90;36.85;;;14.50;99.90;;;;;;5052484;28;20106;-66
2021/07/02 04:55:44;;;;;;;77.10;35.95;;;14.50;99.90;;;;;;5053408;28;20128;-67
2021/07/02 04:58:11;;;;;;;78.03;36.22;;;14.60;99.90;;;;;;5053877;28;20112;-67
2021/07/02 05:00:37;;;;;;;80.20;35.80;;;14.50;99.90;;;;;;5053534;28;20028;-67
2021/07/02 05:03:03;;;;;;;85.30;37.38;;;14.60;99.90;;;;;;5053783;28;20367;-67
2021/07/02 05:05:29;;;;;;;77.88;35.05;;;14.50;99.90;;;;;;5053768;28;20029;-67
2021/07/02 05:07:55;;;;;;;83.43;37.03;;;14.60;99.90;;;;;;5053751;28;20025;-67
2021/07/02 05:10:20;;;;;;;80.05;35.38;;;14.60;99.90;;;;;;5053753;28;20467;-67
2021/07/02 05:12:46;;;;;;;74.40;36.90;;;14.60;99.90;;;;;;5053661;28;20021;-67
2021/07/02 05:15:11;;;;;;;78.32;36.75;;;14.60;99.90;;;;;;5053411;28;20025;-66
2021/07/02 05:17:37;;;;;;;81.57;37.05;;;14.60;99.90;;;;;;5053585;28;20074;-66
2021/07/02 05:20:03;;;;;;;81.15;37.78;;;14.60;99.90;;;;;;5053604;28;20029;-67
2021/07/02 05:22:29;;;;;;;73.57;37.00;;;14.70;99.90;;;;;;5053367;28;20078;-67
2021/07/02 05:24:55;;;;;;;73.03;34.85;;;14.80;99.90;;;;;;5053576;28;20118;-67
2021/07/02 05:27:21;;;;;;;80.85;36.95;;;15.00;99.90;;;;;;5052106;28;20025;-67
2021/07/02 05:29:46;;;;;;;75.78;37.00;;;15.20;99.90;;;;;;5053523;28;20063;-67
2021/07/02 05:32:12;;;;;;;70.32;35.85;;;15.40;99.90;;;;;;5053497;28;20029;-67
2021/07/02 05:34:38;;;;;;;72.43;36.05;;;15.60;99.90;;;;;;5051711;28;20505;-67
2021/07/02 05:37:04;;;;;;;73.25;33.65;;;15.60;99.90;;;;;;5053167;28;20025;-67
2021/07/02 05:39:30;;;;;;;74.88;35.58;;;15.50;99.90;;;;;;5056155;28;20029;-67
2021/07/02 05:41:56;;;;;;;69.95;34.80;;;15.40;99.90;;;;;;5056986;28;20379;-67
2021/07/02 05:44:22;;;;;;;68.35;34.28;;;15.30;99.90;;;;;;5057227;28;20056;-67
2021/07/02 05:46:47;;;;;;;73.88;35.45;;;15.30;99.90;;;;;;5057253;28;20025;-67
2021/07/02 05:49:14;;;;;;;72.25;34.63;;;15.30;99.90;;;;;;5056017;28;20467;-67
2021/07/02 05:51:40;;;;;;;62.97;35.08;;;15.30;99.90;;;;;;5056718;28;20112;-66
2021/07/02 05:54:05;;;;;;;68.53;33.85;;;15.40;99.90;;;;;;5055155;28;20104;-66
2021/07/02 05:56:32;;;;;;;67.30;35.08;;;15.50;99.90;;;;;;5056245;28;20068;-66
2021/07/02 05:58:59;;;;;;;67.32;34.42;;;15.50;99.90;;;;;;5057015;28;20431;-66
2021/07/02 06:01:25;;;;;;;67.70;36.17;;;15.50;99.90;;;;;;5054131;28;20104;-67
2021/07/02 06:03:51;;;;;;;63.88;33.80;;;15.60;99.90;;;;;;5054690;28;20096;-67
2021/07/02 06:06:19;;;;;;;64.35;32.42;;;15.60;99.90;;;;;;5056070;28;20029;-67
2021/07/02 06:08:45;;;;;;;61.05;32.53;;;15.80;99.90;;;;;;5056140;28;20029;-67
2021/07/02 06:11:11;;;;;;;61.45;32.65;;;15.70;99.90;;;;;;5054166;28;20056;-67
2021/07/02 06:13:37;;;;;;;56.92;28.77;;;15.90;99.90;;;;;;5053998;28;20478;-67
2021/07/02 06:16:02;;;;;;;57.42;30.45;;;15.90;99.90;;;;;;5062644;28;20037;-67
2021/07/02 06:18:28;;;;;;;56.30;30.25;;;15.90;99.90;;;;;;5057637;28;20016;-67
2021/07/02 06:20:54;;;;;;;58.30;31.85;;;15.90;99.90;;;;;;5055803;28;20428;-67
2021/07/02 06:23:20;;;;;;;60.40;31.58;;;15.80;99.90;;;;;;5056936;28;20021;-67
2021/07/02 06:25:46;;;;;;;65.40;32.65;;;15.90;99.90;;;;;;5055098;28;20504;-67
2021/07/02 06:28:12;;;;;;;57.25;31.05;;;16.00;99.90;;;;;;5055969;28;20060;-67
2021/07/02 06:30:38;;;;;;;58.55;31.58;;;15.90;99.90;;;;;;5055387;28;20033;-67
2021/07/02 06:33:03;;;;;;;57.83;30.85;;;15.90;99.90;;;;;;5056069;28;20052;-67
2021/07/02 06:35:29;;;;;;;56.28;30.08;;;15.80;99.90;;;;;;5037579;28;20025;-67
2021/07/02 06:37:55;;;;;;;53.60;29.65;;;15.90;99.90;;;;;;5054006;28;20379;-67
2021/07/02 06:40:20;;;;;;;48.03;27.45;;;15.90;99.90;;;;;;5055846;28;20462;-67
2021/07/02 06:42:47;;;;;;;49.25;29.08;;;16.00;99.90;;;;;;5055836;28;20100;-67
2021/07/02 06:45:14;;;;;;;46.10;26.75;;;16.10;99.90;;;;;;5056052;28;20032;-67
2021/07/02 06:48:02;;;;;;;50.42;26.85;;;16.10;99.90;;;;;;5055423;28;20531;-67
2021/07/02 06:50:29;;;;;;;39.92;24.33;;;16.20;99.90;;;;;;5055064;28;20024;-67
2021/07/02 06:52:56;;;;;;;46.10;25.92;;;16.10;99.90;;;;;;5054098;28;20032;-67
2021/07/02 06:55:22;;;;;;;46.78;25.98;;;16.30;99.90;;;;;;5055529;28;20136;-71
2021/07/02 06:57:48;;;;;;;44.45;24.70;;;16.50;99.90;;;;;;5037238;28;20021;-71
2021/07/02 07:00:17;;;;;;;49.47;26.63;;;16.50;99.90;;;;;;5053996;28;20032;-71
2021/07/02 07:02:43;;;;;;;40.13;25.67;;;16.30;99.90;;;;;;5054795;28;20029;-71
2021/07/02 07:05:09;;;;;;;47.78;26.13;;;16.50;99.90;;;;;;5053941;28;20017;-71
2021/07/02 07:07:34;;;;;;;45.47;25.23;;;16.60;99.90;;;;;;5054547;28;20397;-71
2021/07/02 07:10:00;;;;;;;43.20;24.33;;;16.90;99.90;;;;;;5053335;28;20025;-71
2021/07/02 07:12:25;;;;;;;37.33;23.55;;;16.90;99.90;;;;;;5036030;28;20112;-71
2021/07/02 07:14:51;;;;;;;38.63;23.88;;;16.70;99.90;;;;;;5053959;28;20478;-71
2021/07/02 07:17:17;;;;;;;40.08;23.38;;;16.80;99.90;;;;;;5052696;28;20094;-71
2021/07/02 07:19:43;;;;;;;39.17;22.55;;;16.90;99.90;;;;;;5053045;28;20215;-71
2021/07/02 07:22:09;;;;;;;42.25;23.23;;;16.80;99.90;;;;;;5054345;28;20065;-71
2021/07/02 07:24:34;;;;;;;37.92;22.45;;;16.80;99.90;;;;;;5052328;28;20021;-71
2021/07/02 07:27:00;;;;;;;39.67;22.10;;;16.80;99.90;;;;;;5052483;28;20478;-71
2021/07/02 07:29:26;;;;;;;34.00;21.00;;;16.80;99.90;;;;;;5052839;28;20025;-71
2021/07/02 07:31:53;;;;;;;40.25;22.10;;;16.80;99.90;;;;;;5052434;28;20029;-71
2021/07/02 07:34:25;;;;;;;39.78;22.27;;;16.70;99.90;;;;;;5052785;28;20470;-71
2021/07/02 07:36:55;;;;;;;37.00;22.75;;;16.70;99.90;;;;;;5053272;28;20039;-71
2021/07/02 07:39:20;;;;;;;39.90;21.35;;;16.70;99.90;;;;;;5041525;28;20483;-71
2021/07/02 07:41:46;;;;;;;34.90;20.50;;;16.70;99.90;;;;;;5053682;28;20025;-71
2021/07/02 07:44:13;;;;;;;36.00;20.73;;;16.80;99.90;;;;;;5054059;28;20017;-71
2021/07/02 07:46:39;;;;;;;40.13;20.88;;;16.70;99.90;;;;;;5051473;28;20028;-71
2021/07/02 07:49:04;;;;;;;36.63;19.48;;;16.80;99.90;;;;;;5052884;28;20017;-71
2021/07/02 07:51:33;;;;;;;28.08;17.73;;;16.80;99.90;;;;;;5053851;28;20478;-70
2021/07/02 07:54:00;;;;;;;36.03;18.60;;;16.80;99.90;;;;;;5053291;28;20092;-71
2021/07/02 07:56:26;;;;;;;29.42;18.30;;;16.80;99.90;;;;;;5052505;28;20080;-71
2021/07/02 07:58:53;;;;;;;36.40;19.80;;;17.00;99.90;;;;;;5053329;28;20049;-71
2021/07/02 08:01:19;;;;;;;28.52;17.00;;;17.10;99.90;;;;;;5051830;28;20064;-71
2021/07/02 08:03:45;;;;;;;30.48;18.05;;;17.30;99.90;;;;;;5053833;28;20075;-71
2021/07/02 08:06:11;;;;;;;26.48;17.10;;;17.60;99.90;;;;;;5053948;28;20032;-71
2021/07/02 08:08:36;;;;;;;32.00;17.52;;;17.70;99.90;;;;;;5052668;28;20031;-71
2021/07/02 08:11:02;;;;;;;29.65;17.17;;;17.90;99.90;;;;;;5053044;28;20382;-71
2021/07/02 08:13:29;;;;;;;27.23;16.30;;;18.20;99.90;;;;;;5054420;28;20029;-71
2021/07/02 08:15:56;;;;;;;29.13;18.38;;;18.50;99.90;;;;;;5054266;28;20021;-71
2021/07/02 08:18:21;;;;;;;27.52;16.58;;;18.50;99.90;;;;;;5052098;28;20159;-71
2021/07/02 08:20:47;;;;;;;26.27;15.93;;;18.70;99.90;;;;;;5054099;28;20108;-71
2021/07/02 08:23:13;;;;;;;25.35;14.02;;;19.00;99.90;;;;;;5054043;28;20040;-71
2021/07/02 08:25:39;;;;;;;24.75;14.00;;;19.10;99.90;;;;;;5054160;28;20055;-71
2021/07/02 08:30:52;;;;;;;25.13;15.73;;;18.50;99.90;;;;;;5053247;28;20029;-72
2021/07/02 08:33:19;;;;;;;30.38;16.60;;;18.20;99.90;;;;;;5053416;28;20025;-72
2021/07/02 08:35:46;;;;;;;26.27;16.02;;;17.90;99.90;;;;;;5054015;28;20528;-72
2021/07/02 08:38:13;;;;;;;29.85;16.05;;;17.80;99.90;;;;;;5054178;28;20080;-72
2021/07/02 08:40:39;;;;;;;29.23;18.38;;;17.80;99.90;;;;;;5052463;28;20017;-72
2021/07/02 08:43:05;;;;;;;31.00;18.35;;;17.70;99.90;;;;;;5053245;28;20045;-72
2021/07/02 08:45:30;;;;;;;24.90;16.27;;;17.80;99.90;;;;;;5053406;28;20075;-72
2021/07/02 08:48:02;;;;;;;29.70;15.80;;;17.90;99.90;;;;;;5053539;28;20031;-72
2021/07/02 08:50:29;;;;;;;26.40;15.02;;;17.80;99.90;;;;;;5052412;28;20013;-72
2021/07/02 08:52:54;;;;;;;28.13;15.90;;;18.10;99.90;;;;;;5053392;28;20484;-72
2021/07/02 08:55:20;;;;;;;28.40;15.73;;;18.00;99.90;;;;;;5052484;28;20052;-72
2021/07/02 08:57:45;;;;;;;29.35;17.38;;;18.10;99.90;;;;;;5053613;28;20033;-72
2021/07/02 09:00:11;;;;;;;29.98;17.92;;;18.00;99.90;;;;;;5053554;28;20101;-72
2021/07/02 09:02:40;;;;;;;29.77;19.17;;;18.30;99.90;;;;;;5051848;28;20033;-72
2021/07/02 09:05:29;;;;;;;36.45;20.38;;;18.20;99.90;;;;;;5035646;28;20070;-72
2021/07/02 09:07:55;;;;;;;38.47;20.55;;;18.10;99.90;;;;;;5085210;28;20044;-72
2021/07/02 09:10:31;;;;;;;34.85;21.65;;;18.10;99.90;;;;;;5052333;28;20366;-72
2021/07/02 09:12:57;;;;;;;38.30;21.20;;;18.20;99.90;;;;;;5055440;28;20013;-72
2021/07/02 09:15:22;;;;;;;34.72;21.40;;;18.40;99.90;;;;;;5057696;28;20473;-72
2021/07/02 09:20:35;;;;;;;35.53;20.60;;;18.60;99.90;;;;;;5113417;27;1204473;-71
2021/07/02 09:23:03;;;;;;;33.72;21.58;;;18.60;99.90;;;;;;5131869;27;20023;-71
2021/07/02 09:28:10;;;;;;;36.97;22.20;;;18.70;99.90;;;;;;5091653;28;20405;-72
2021/07/02 09:30:43;;;;;;;33.40;20.55;;;18.90;99.90;;;;;;5091336;28;20048;-73
2021/07/02 09:33:13;;;;;;;33.83;21.95;;;19.00;99.90;;;;;;5090133;28;20020;-72
2021/07/02 09:35:46;;;;;;;37.67;22.17;;;19.20;99.90;;;;;;5089760;28;20040;-72
2021/07/02 09:38:12;;;;;;;33.20;21.67;;;19.40;99.90;;;;;;5090768;28;20023;-73
2021/07/02 09:40:38;;;;;;;31.88;21.52;;;19.60;99.90;;;;;;5091117;28;20707;-74
2021/07/02 09:43:07;;;;;;;31.35;20.88;;;19.70;99.90;;;;;;5090420;28;20077;-73
2021/07/02 09:45:52;;;;;;;31.48;20.42;;;19.50;99.90;;;;;;5091271;28;20100;-73
2021/07/02 09:48:20;;;;;;;30.50;20.90;;;19.30;99.90;;;;;;5089288;28;20025;-72
2021/07/02 09:50:57;;;;;;;31.55;19.90;;;19.30;99.90;;;;;;5089461;28;20323;-73
2021/07/02 09:53:27;;;;;;;28.58;18.73;;;19.60;99.90;;;;;;5090068;28;20020;-73
2021/07/02 09:55:55;;;;;;;28.38;17.63;;;19.90;99.90;;;;;;5088982;28;20020;-73
2021/07/02 09:58:26;;;;;;;27.25;18.00;;;20.30;99.90;;;;;;5087865;28;20020;-72
2021/07/02 10:00:53;;;;;;;30.13;18.35;;;20.40;99.90;;;;;;5087753;28;20027;-67
2021/07/02 10:03:24;;;;;;;28.23;19.20;;;20.40;99.90;;;;;;5088582;28;20025;-67
2021/07/02 10:06:01;;;;;;;24.08;17.80;;;20.50;99.90;;;;;;5086916;28;20364;-67
2021/07/02 10:08:31;;;;;;;26.73;17.65;;;20.40;99.90;;;;;;5068710;28;20390;-67
2021/07/02 10:10:58;;;;;;;25.83;17.20;;;20.20;99.90;;;;;;5068599;28;20036;-67
2021/07/02 10:13:26;;;;;;;24.83;16.08;;;19.80;99.90;;;;;;5080716;28;20055;-67
2021/07/02 10:15:54;;;;;;;30.95;16.95;;;19.80;99.90;;;;;;5088975;28;20028;-67
2021/07/02 10:18:21;;;;;;;22.15;13.32;;;20.00;99.90;;;;;;5072163;28;20024;-67
2021/07/02 10:20:48;;;;;;;23.88;14.25;;;19.60;99.90;;;;;;5090418;28;20023;-67
2021/07/02 10:23:26;;;;;;;24.88;14.98;;;19.80;99.90;;;;;;5088797;28;20027;-67
2021/07/02 10:25:53;;;;;;;27.23;16.05;;;19.90;99.90;;;;;;5089793;28;20377;-67
2021/07/02 10:28:21;;;;;;;23.65;14.30;;;19.80;99.90;;;;;;5090340;28;20230;-67
2021/07/02 10:30:48;;;;;;;22.15;13.02;;;20.50;99.90;;;;;;5088698;28;20021;-67
2021/07/02 10:33:14;;;;;;;21.83;13.45;;;20.90;99.90;;;;;;5088975;28;20035;-67
2021/07/02 10:35:44;;;;;;;20.60;14.05;;;21.10;99.90;;;;;;5088882;28;20032;-68
2021/07/02 10:38:10;;;;;;;19.17;12.27;;;20.90;99.90;;;;;;5083626;28;20027;-68
2021/07/02 10:40:46;;;;;;;20.23;13.35;;;21.10;99.90;;;;;;5075236;28;20021;-67
2021/07/02 10:43:17;;;;;;;17.42;11.27;;;21.40;99.90;;;;;;5076677;28;20024;-67
2021/07/02 10:46:11;;;;;;;22.15;12.02;;;21.30;99.90;;;;;;5074660;28;20016;-67
2021/07/02 10:48:58;;;;;;;17.10;12.20;;;21.10;99.90;;;;;;5075634;28;20371;-68
2021/07/02 10:54:28;;;;;;;18.08;11.10;;;21.20;99.90;;;;;;5069109;28;20754;-67
2021/07/02 10:57:00;;;;;;;14.55;7.82;;;21.60;99.90;;;;;;5070691;28;20486;-68
2021/07/02 11:02:19;;;;;;;13.82;8.20;;;21.70;99.90;;;;;;5096499;27;1171831;-66
2021/07/02 11:04:50;;;;;;;12.98;7.97;;;21.40;99.90;;;;;;5120658;28;20019;-66
2021/07/02 11:07:25;;;;;;;12.73;7.50;;;21.00;99.90;;;;;;5131781;27;20015;-68
2021/07/02 11:12:31;;;;;;;14.07;7.38;;;20.70;99.90;;;;;;5069799;28;20353;-66
2021/07/02 11:17:43;;;;;;;9.27;5.97;;;20.10;99.90;;;;;;5090243;28;20853;-66
2021/07/02 11:25:46;;;;;;;10.77;5.65;;;19.80;99.90;;;;;;5072383;27;20367;-67
2021/07/02 11:28:18;;;;;;;12.15;5.97;;;20.20;99.90;;;;;;5084845;28;20016;-67
2021/07/02 11:30:44;;;;;;;9.13;5.60;;;20.60;99.90;;;;;;5069961;28;20027;-68
2021/07/02 11:36:08;;;;;;;5.38;4.18;;;20.90;99.90;;;;;;5101283;27;20589;-68
2021/07/02 11:38:46;;;;;;;7.60;4.00;;;21.00;99.90;;;;;;5089496;28;20142;-67
2021/07/02 11:41:21;;;;;;;4.68;3.30;;;20.90;99.90;;;;;;5089317;28;20021;-67
2021/07/02 11:43:47;;;;;;;6.95;3.70;;;21.00;99.90;;;;;;5105965;28;20393;-67
2021/07/02 11:46:15;;;;;;;5.18;3.22;;;20.90;99.90;;;;;;5090678;28;20020;-67
2021/07/02 11:48:42;;;;;;;5.40;3.45;;;21.00;99.90;;;;;;5102276;28;20016;-67
2021/07/02 11:51:12;;;;;;;6.55;3.50;;;21.10;99.90;;;;;;5107962;28;20063;-67
2021/07/02 11:53:44;;;;;;;3.92;3.05;;;21.30;99.90;;;;;;5110869;28;20055;-67
2021/07/02 11:56:12;;;;;;;4.70;3.47;;;21.70;99.90;;;;;;5109345;28;20106;-67
2021/07/02 11:58:40;;;;;;;6.30;3.50;;;21.60;99.90;;;;;;5111423;28;20074;-67
2021/07/02 12:01:09;;;;;;;3.95;3.25;;;21.80;99.90;;;;;;5110607;28;20061;-67
2021/07/02 12:03:36;;;;;;;7.82;3.72;;;21.70;99.90;;;;;;5097996;28;20020;-67
2021/07/02 12:06:04;;;;;;;5.28;4.32;;;21.80;99.90;;;;;;5097929;28;20454;-69
2021/07/02 12:08:31;;;;;;;5.32;3.88;;;21.60;99.90;;;;;;5109221;28;20035;-69
2021/07/02 12:11:00;;;;;;;5.65;3.65;;;22.10;99.90;;;;;;5090169;28;20095;-69
2021/07/02 12:13:28;;;;;;;5.55;4.05;;;22.20;99.90;;;;;;5091193;28;20024;-68
2021/07/02 12:16:12;;;;;;;8.75;4.60;;;22.50;99.90;;;;;;5102930;28;20016;-68
2021/07/02 12:18:39;;;;;;;5.53;4.13;;;22.90;99.90;;;;;;5107747;28;20138;-68
2021/07/02 12:21:09;;;;;;;5.68;4.25;;;22.90;99.90;;;;;;5108095;28;20534;-69
2021/07/02 12:23:37;;;;;;;7.75;5.22;;;22.70;99.90;;;;;;5105670;28;20104;-69
2021/07/02 12:26:20;;;;;;;6.82;4.25;;;23.00;99.90;;;;;;5105307;28;20019;-68
2021/07/02 12:29:10;;;;;;;7.18;4.30;;;22.90;99.90;;;;;;5107626;28;20024;-68
2021/07/02 12:31:39;;;;;;;6.13;3.90;;;23.10;99.90;;;;;;5108544;28;20031;-68
2021/07/02 12:34:10;;;;;;;5.75;4.15;;;23.30;99.90;;;;;;5109873;28;20046;-68
2021/07/02 12:36:53;;;;;;;8.52;4.07;;;23.60;99.90;;;;;;5110537;28;20055;-72
2021/07/02 12:39:19;;;;;;;6.75;4.38;;;23.10;99.90;;;;;;5110106;28;20020;-72
2021/07/02 12:41:48;;;;;;;6.57;4.35;;;22.80;99.90;;;;;;5110104;28;20077;-72
2021/07/02 12:44:17;;;;;;;7.72;4.47;;;22.70;99.90;;;;;;5110437;28;20051;-72
2021/07/02 12:46:44;;;;;;;8.05;4.18;;;22.80;99.90;;;;;;5099336;28;20048;-72
2021/07/02 12:49:23;;;;;;;9.23;4.60;;;22.60;99.90;;;;;;5078219;28;20036;-72
2021/07/02 12:54:47;;;;;;;7.57;5.00;;;22.80;99.90;;;;;;5095293;28;20470;-72
2021/07/02 12:55:08;;;;;;;7.28;5.25;;;22.70;99.90;;;;;;5095972;28;20045;-72
2021/07/02 12:57:40;;;;;;;9.48;5.57;;;22.70;99.90;;;;;;5096059;28;20016;-72